Time;durP1;ratioP1;P1;durP2;ratioP2;P2;SDS_P1;SDS_P2;PMS_P1;PMS_P2;Temp;Humidity;BMP_temperature;BMP_pressure;BME280_temperature;BME280_humidity;BME280_pressure;Samples;Min_cycle;Max_cycle;Signal;HPM_P1;HPM_P2
2022/10/02 00:01:15;;;;;;;5.37;3.17;;;;;;;16.32;100.00;94431.00;5058918;28;20228;-79
2022/10/02 00:03:44;;;;;;;4.83;2.60;;;;;;;16.32;100.00;94431.00;5059723;28;20213;-77
2022/10/02 00:06:18;;;;;;;6.03;2.77;;;;;;;16.36;100.00;94439.94;5059098;28;20206;-79
2022/10/02 00:08:46;;;;;;;9.63;3.20;;;;;;;16.30;100.00;94420.00;5052943;28;20213;-77
2022/10/02 00:11:18;;;;;;;6.67;2.90;;;;;;;16.37;100.00;94438.88;5053839;28;20930;-80
2022/10/02 00:13:48;;;;;;;4.70;2.70;;;;;;;16.38;100.00;94425.53;5052812;28;20954;-79
2022/10/02 00:16:25;;;;;;;10.30;3.37;;;;;;;16.41;100.00;94425.00;5060851;28;20338;-78
2022/10/02 00:18:55;;;;;;;5.40;3.30;;;;;;;16.34;100.00;94426.28;5057075;28;20267;-79
2022/10/02 00:21:33;;;;;;;5.87;3.40;;;;;;;16.23;100.00;94422.84;5060304;28;20584;-78
2022/10/02 00:24:02;;;;;;;6.53;3.13;;;;;;;16.20;100.00;94425.19;5053832;28;20213;-78
2022/10/02 00:26:34;;;;;;;7.80;3.80;;;;;;;16.13;100.00;94435.16;5059006;28;20650;-78
2022/10/02 00:29:09;;;;;;;7.43;3.60;;;;;;;16.11;100.00;94434.59;5054640;28;20205;-78
2022/10/02 00:31:46;;;;;;;7.80;4.07;;;;;;;16.15;100.00;94435.69;5058576;28;20202;-79
2022/10/02 00:34:26;;;;;;;7.87;4.20;;;;;;;16.15;100.00;94440.94;5054536;28;21454;-78
2022/10/02 00:37:42;;;;;;;7.23;4.30;;;;;;;16.15;100.00;94441.72;5055000;28;20972;-83
2022/10/02 00:40:53;;;;;;;6.17;4.33;;;;;;;16.07;100.00;94454.53;5043981;28;20217;-85
2022/10/02 00:43:27;;;;;;;5.93;4.50;;;;;;;15.89;100.00;94443.44;5029960;28;20194;-79
2022/10/02 00:46:09;;;;;;;5.20;4.50;;;;;;;15.81;100.00;94446.53;5057298;28;20200;-78
2022/10/02 00:49:08;;;;;;;12.60;5.73;;;;;;;15.83;100.00;94454.97;5054115;28;20223;-79
2022/10/02 00:51:48;;;;;;;8.63;4.97;;;;;;;15.72;100.00;94461.19;5040673;28;20233;-79
2022/10/02 00:54:45;;;;;;;8.30;5.27;;;;;;;15.72;100.00;94463.81;5066452;28;20213;-81
2022/10/02 00:57:22;;;;;;;6.80;5.20;;;;;;;15.81;100.00;94461.50;5063243;28;20244;-79
2022/10/02 01:00:01;;;;;;;7.77;5.37;;;;;;;15.79;100.00;94459.13;5059298;28;20227;-79
2022/10/02 01:02:51;;;;;;;8.00;4.80;;;;;;;15.76;100.00;94462.25;5056122;28;20688;-79
2022/10/02 01:05:20;;;;;;;6.87;4.47;;;;;;;15.73;100.00;94449.66;5056206;28;20209;-80
2022/10/02 01:07:51;;;;;;;5.07;4.40;;;;;;;15.84;100.00;94456.50;5060163;28;20566;-79
2022/10/02 01:10:21;;;;;;;6.73;4.17;;;;;;;15.86;100.00;94472.00;5058925;28;20205;-80
2022/10/02 01:12:48;;;;;;;11.07;4.33;;;;;;;15.91;100.00;94479.88;5063498;28;20696;-79
2022/10/02 01:15:18;;;;;;;5.87;4.20;;;;;;;15.79;100.00;94482.69;5062406;28;20295;-80
2022/10/02 01:17:46;;;;;;;6.53;4.23;;;;;;;15.76;100.00;94477.97;5053289;28;20336;-80
2022/10/02 01:20:18;;;;;;;7.47;3.70;;;;;;;15.80;100.00;94481.66;5064090;28;20244;-78
2022/10/02 01:22:52;;;;;;;5.20;4.07;;;;;;;15.80;100.00;94484.28;5057075;28;20209;-78
2022/10/02 01:25:20;;;;;;;5.53;3.57;;;;;;;15.75;100.00;94483.47;5062787;28;20715;-79
2022/10/02 01:27:48;;;;;;;3.70;3.30;;;;;;;15.76;100.00;94482.41;5065973;28;20237;-78
2022/10/02 01:30:17;;;;;;;4.53;3.33;;;;;;;15.76;100.00;94490.28;5064774;28;20208;-79
2022/10/02 01:32:49;;;;;;;4.23;3.13;;;;;;;15.72;100.00;94495.25;5062034;28;20214;-79
2022/10/02 01:35:16;;;;;;;4.30;3.00;;;;;;;15.70;100.00;94494.69;5056954;28;20212;-79
2022/10/02 01:37:44;;;;;;;10.47;3.53;;;;;;;15.67;100.00;94489.97;5058035;28;20217;-81
2022/10/02 01:40:25;;;;;;;5.83;3.17;;;;;;;15.74;100.00;94506.25;5062865;28;20229;-80
2022/10/02 01:42:53;;;;;;;4.00;3.17;;;;;;;15.72;100.00;94507.56;5059076;28;20201;-80
2022/10/02 01:45:32;;;;;;;4.57;3.20;;;;;;;15.73;100.00;94512.53;5058656;28;20212;-81
2022/10/02 01:48:07;;;;;;;6.23;3.07;;;;;;;15.70;100.00;94512.28;5059840;28;20324;-79
2022/10/02 01:50:48;;;;;;;6.10;3.23;;;;;;;15.64;100.00;94505.41;5051130;28;20662;-79
2022/10/02 01:53:24;;;;;;;4.47;3.20;;;;;;;15.71;100.00;94512.00;5062028;28;20206;-79
2022/10/02 01:55:59;;;;;;;10.40;3.23;;;;;;;15.67;100.00;94510.16;5058751;28;20201;-78
2022/10/02 01:58:35;;;;;;;4.07;2.87;;;;;;;15.64;100.00;94516.66;5060341;28;20201;-79
2022/10/02 02:01:11;;;;;;;3.20;2.80;;;;;;;15.58;100.00;94509.03;5057248;28;20279;-79
2022/10/02 02:03:45;;;;;;;2.93;2.60;;;;;;;15.58;100.00;94515.09;5060200;28;20205;-80
2022/10/02 02:06:19;;;;;;;3.30;2.87;;;;;;;15.53;100.00;94512.41;5066906;28;20201;-79
2022/10/02 02:08:55;;;;;;;6.23;2.50;;;;;;;15.47;100.00;94523.13;5058055;28;20206;-78
2022/10/02 02:11:24;;;;;;;4.87;2.60;;;;;;;15.42;100.00;94523.81;5059935;28;20205;-79
2022/10/02 02:13:58;;;;;;;5.00;2.60;;;;;;;15.32;100.00;94527.16;5061114;28;20577;-79
2022/10/02 02:16:31;;;;;;;2.33;2.13;;;;;;;15.35;100.00;94541.59;5061820;28;20204;-79
2022/10/02 02:19:05;;;;;;;4.50;2.17;;;;;;;15.30;100.00;94555.41;5054127;28;20202;-81
2022/10/02 02:21:35;;;;;;;4.03;2.10;;;;;;;15.32;100.00;94555.94;5060550;28;20229;-80
2022/10/02 02:24:09;;;;;;;5.37;2.27;;;;;;;15.19;100.00;94545.91;5061709;28;20201;-81
2022/10/02 02:26:42;;;;;;;3.67;2.17;;;;;;;15.29;100.00;94556.44;5058114;28;20202;-82
2022/10/02 02:29:10;;;;;;;2.43;2.23;;;;;;;15.24;100.00;94569.50;5058974;28;20229;-81
2022/10/02 02:31:43;;;;;;;3.53;1.80;;;;;;;15.20;100.00;94565.03;5057100;28;20672;-82
2022/10/02 02:34:14;;;;;;;5.03;2.10;;;;;;;15.22;100.00;94561.13;5052397;28;20205;-80
2022/10/02 02:36:44;;;;;;;3.50;2.00;;;;;;;15.17;100.00;94558.47;5052847;28;20201;-80
2022/10/02 02:39:15;;;;;;;3.67;1.80;;;;;;;15.20;100.00;94567.63;5060349;28;20670;-81
2022/10/02 02:41:49;;;;;;;2.90;1.90;;;;;;;15.20;100.00;94575.50;5059565;28;20217;-81
2022/10/02 02:44:21;;;;;;;3.27;2.00;;;;;;;15.21;100.00;94584.91;5058669;28;20264;-82
2022/10/02 02:47:05;;;;;;;2.00;1.80;;;;;;;15.18;100.00;94565.25;5061652;28;20212;-82
2022/10/02 02:49:44;;;;;;;2.53;2.00;;;;;;;15.19;100.00;94584.38;5062815;28;20203;-81
2022/10/02 02:52:15;;;;;;;2.00;1.80;;;;;;;15.20;100.00;94594.63;5062726;28;20660;-82
2022/10/02 02:54:46;;;;;;;4.03;2.00;;;;;;;15.24;100.00;94595.69;5065243;28;20217;-82
2022/10/02 02:57:18;;;;;;;5.20;2.07;;;;;;;15.26;100.00;94605.94;5061473;28;20217;-80
2022/10/02 02:59:49;;;;;;;3.00;2.20;;;;;;;15.27;100.00;94603.03;5055568;28;20216;-78
2022/10/02 03:02:16;;;;;;;3.20;2.20;;;;;;;15.31;100.00;94619.84;5052889;28;20291;-78
2022/10/02 03:04:42;;;;;;;4.33;2.37;;;;;;;15.18;100.00;94614.22;5053987;28;20234;-78
2022/10/02 03:07:16;;;;;;;2.27;2.07;;;;;;;15.27;100.00;94615.34;5057676;28;20210;-78
2022/10/02 03:09:52;;;;;;;4.63;2.40;;;;;;;15.21;100.00;94626.81;5060856;28;20312;-78
2022/10/02 03:12:27;;;;;;;3.90;2.50;;;;;;;15.15;100.00;94625.97;5057573;28;20213;-78
2022/10/02 03:15:17;;;;;;;4.40;2.50;;;;;;;15.09;100.00;94626.19;5059431;28;20205;-77
2022/10/02 03:18:17;;;;;;;3.53;2.60;;;;;;;15.09;100.00;94631.41;5058723;28;20210;-78
2022/10/02 03:20:53;;;;;;;4.53;2.70;;;;;;;15.12;100.00;94638.78;5061477;28;20236;-79
2022/10/02 03:23:27;;;;;;;4.40;2.90;;;;;;;15.11;100.00;94640.59;5056583;28;20209;-78
2022/10/02 03:26:01;;;;;;;6.90;3.53;;;;;;;15.15;100.00;94652.13;5056429;28;20197;-78
2022/10/02 03:28:36;;;;;;;5.33;3.37;;;;;;;15.10;100.00;94643.44;5056193;28;20206;-79
2022/10/02 03:31:03;;;;;;;6.57;3.20;;;;;;;15.07;100.00;94643.94;5048680;28;20197;-79
2022/10/02 03:33:32;;;;;;;4.73;3.27;;;;;;;15.09;100.00;94663.59;5052021;28;20263;-79
2022/10/02 03:35:59;;;;;;;6.67;3.17;;;;;;;15.05;100.00;94656.47;5060192;28;20229;-78
2022/10/02 03:38:29;;;;;;;4.13;3.57;;;;;;;15.03;100.00;94656.75;5061427;28;20212;-79
2022/10/02 03:40:57;;;;;;;4.27;3.40;;;;;;;15.01;100.00;94660.63;5055377;28;20226;-78
2022/10/02 03:43:27;;;;;;;5.03;3.57;;;;;;;14.97;100.00;94665.56;5055732;28;20202;-78
2022/10/02 03:45:55;;;;;;;6.60;3.60;;;;;;;14.97;100.00;94670.81;5060113;28;20198;-78
2022/10/02 03:48:22;;;;;;;6.93;4.50;;;;;;;15.02;100.00;94673.47;5053448;28;20216;-79
2022/10/02 03:50:50;;;;;;;5.10;4.50;;;;;;;15.01;100.00;94673.69;5061855;28;20237;-79
2022/10/02 03:53:19;;;;;;;5.20;4.00;;;;;;;14.97;100.00;94657.72;5064248;28;20259;-81
2022/10/02 03:55:50;;;;;;;4.70;4.13;;;;;;;15.02;100.00;94660.38;5062701;28;20202;-79
2022/10/02 03:58:18;;;;;;;4.30;3.80;;;;;;;14.98;100.00;94679.44;5060547;28;20209;-79
2022/10/02 04:00:53;;;;;;;6.07;4.27;;;;;;;14.98;100.00;94692.53;5059326;28;20230;-80
2022/10/02 04:03:25;;;;;;;5.10;4.30;;;;;;;14.92;100.00;94693.50;5058923;28;22093;-81
2022/10/02 04:05:56;;;;;;;5.13;4.40;;;;;;;14.88;100.00;94698.44;5053155;28;20205;-80
2022/10/02 04:08:28;;;;;;;5.97;4.40;;;;;;;14.86;100.00;94697.91;5058610;28;20197;-80
2022/10/02 04:11:03;;;;;;;7.00;4.30;;;;;;;14.87;100.00;94699.47;5059328;28;20217;-79
2022/10/02 04:13:34;;;;;;;5.03;4.10;;;;;;;14.83;100.00;94700.19;5059899;28;20212;-81
2022/10/02 04:16:09;;;;;;;6.00;4.80;;;;;;;14.84;100.00;94699.94;5060352;28;20233;-79
2022/10/02 04:18:45;;;;;;;5.63;4.87;;;;;;;14.83;100.00;94710.66;5055020;28;20208;-78
2022/10/02 04:21:18;;;;;;;6.13;4.40;;;;;;;14.66;100.00;94721.19;5055689;28;20225;-78
2022/10/02 04:23:50;;;;;;;5.03;4.40;;;;;;;14.61;100.00;94728.94;5048637;28;21595;-78
2022/10/02 04:26:23;;;;;;;5.70;4.30;;;;;;;14.70;100.00;94725.66;5056411;28;20325;-77
2022/10/02 04:28:55;;;;;;;4.50;4.10;;;;;;;14.81;100.00;94715.31;5059730;28;20206;-80
2022/10/02 04:31:26;;;;;;;5.10;4.60;;;;;;;14.91;100.00;94723.31;5062690;28;20225;-79
2022/10/02 04:33:55;;;;;;;5.13;4.10;;;;;;;14.79;100.00;94712.97;5069193;28;20225;-81
2022/10/02 04:36:39;;;;;;;5.00;4.50;;;;;;;14.70;100.00;94709.97;5060498;28;20201;-80
2022/10/02 04:39:22;;;;;;;5.13;4.63;;;;;;;14.63;100.00;94732.88;5062776;28;20638;-80
2022/10/02 04:42:15;;;;;;;6.23;4.83;;;;;;;14.61;100.00;94719.25;5061547;28;20222;-81
2022/10/02 04:45:12;;;;;;;6.53;4.70;;;;;;;14.56;100.00;94734.09;5057563;28;20901;-80
2022/10/02 04:48:05;;;;;;;6.07;4.40;;;;;;;14.59;100.00;94736.25;5059287;28;20267;-80
2022/10/02 04:50:45;;;;;;;5.63;4.47;;;;;;;14.52;100.00;94754.72;5056183;28;20770;-80
2022/10/02 04:53:31;;;;;;;4.83;4.10;;;;;;;14.59;100.00;94763.19;5062503;28;20197;-79
2022/10/02 04:56:20;;;;;;;5.20;4.07;;;;;;;14.57;100.00;94756.63;5060551;28;20202;-80
2022/10/02 04:59:12;;;;;;;4.50;4.10;;;;;;;14.73;100.00;94769.66;5055139;28;20202;-80
2022/10/02 05:01:56;;;;;;;4.87;4.00;;;;;;;14.70;100.00;94766.72;5058206;28;20205;-80
2022/10/02 05:04:49;;;;;;;4.47;4.10;;;;;;;14.80;100.00;94771.31;5060262;28;20201;-80
2022/10/02 05:07:41;;;;;;;5.73;4.40;;;;;;;14.83;100.00;94776.88;5060148;28;20221;-81
2022/10/02 05:10:41;;;;;;;4.63;4.23;;;;;;;14.94;100.00;94778.59;5055159;28;20206;-78
2022/10/02 05:13:23;;;;;;;5.03;4.53;;;;;;;15.07;100.00;94785.28;5061201;28;20198;-78
2022/10/02 05:16:08;;;;;;;5.30;4.33;;;;;;;15.12;100.00;94790.63;5054450;28;20233;-80
2022/10/02 05:18:58;;;;;;;6.77;4.07;;;;;;;15.05;100.00;94803.88;5055118;28;20611;-79
2022/10/02 05:21:42;;;;;;;6.83;3.80;;;;;;;15.13;100.00;94800.84;5058036;28;20232;-75
2022/10/02 05:24:26;;;;;;;7.87;4.37;;;;;;;15.21;100.00;94797.78;5060227;28;20588;-75
2022/10/02 05:27:14;;;;;;;4.23;3.83;;;;;;;15.11;100.00;94786.41;5066148;28;20220;-74
2022/10/02 05:29:55;;;;;;;4.30;3.90;;;;;;;15.23;100.00;94789.69;5059293;28;20212;-75
2022/10/02 05:32:40;;;;;;;4.00;3.70;;;;;;;15.25;100.00;94780.56;5057870;28;20271;-77
2022/10/02 05:35:20;;;;;;;4.90;4.13;;;;;;;15.32;100.00;94777.78;5058998;28;20209;-79
2022/10/02 05:38:01;;;;;;;5.70;3.80;;;;;;;15.40;100.00;94784.41;5058488;28;20201;-82
2022/10/02 05:40:32;;;;;;;5.60;3.80;;;;;;;15.31;100.00;94787.44;5063412;28;20202;-80
2022/10/02 05:43:11;;;;;;;6.23;4.07;;;;;;;15.31;100.00;94790.06;5057679;28;20194;-77
2022/10/02 05:45:40;;;;;;;4.40;3.80;;;;;;;15.31;100.00;94807.59;5060029;28;20207;-79
2022/10/02 05:48:15;;;;;;;5.03;3.80;;;;;;;15.29;100.00;94807.06;5061589;28;20198;-78
2022/10/02 05:50:47;;;;;;;4.03;3.60;;;;;;;15.34;100.00;94805.31;5064962;28;20259;-79
2022/10/02 05:53:30;;;;;;;7.57;4.10;;;;;;;15.32;100.00;94817.06;5061117;28;20709;-79
2022/10/02 05:56:02;;;;;;;7.37;3.60;;;;;;;15.25;100.00;94800.72;5059262;28;20185;-78
2022/10/02 05:58:34;;;;;;;5.07;3.97;;;;;;;15.10;100.00;94819.63;5055710;28;20706;-75
2022/10/02 06:01:09;;;;;;;4.23;3.60;;;;;;;15.16;100.00;94829.16;5058187;28;20198;-73
2022/10/02 06:03:42;;;;;;;4.40;3.80;;;;;;;15.18;100.00;94823.69;5056543;28;20209;-74
2022/10/02 06:06:21;;;;;;;4.53;4.13;;;;;;;15.15;100.00;94824.16;5055449;28;20197;-80
2022/10/02 06:08:53;;;;;;;4.70;4.23;;;;;;;15.06;100.00;94830.84;5061424;28;20645;-80
2022/10/02 06:11:26;;;;;;;5.07;4.20;;;;;;;15.12;100.00;94822.03;5056356;28;20225;-75
2022/10/02 06:14:00;;;;;;;6.93;4.70;;;;;;;15.20;100.00;94843.34;5053956;28;20205;-73
2022/10/02 06:16:34;;;;;;;5.23;4.73;;;;;;;15.28;100.00;94836.91;5056158;28;20211;-76
2022/10/02 06:19:07;;;;;;;6.30;4.50;;;;;;;15.23;100.00;94845.50;5058135;28;20193;-75
2022/10/02 06:21:41;;;;;;;4.47;4.07;;;;;;;15.19;100.00;94862.69;5057271;28;20277;-71
2022/10/02 06:24:16;;;;;;;6.13;4.83;;;;;;;15.13;100.00;94857.63;5055979;28;20194;-74
2022/10/02 06:26:52;;;;;;;8.37;4.97;;;;;;;15.12;100.00;94864.69;5052213;28;20209;-79
2022/10/02 06:29:25;;;;;;;7.57;5.00;;;;;;;15.07;100.00;94864.63;5061064;28;20193;-84
2022/10/02 06:31:59;;;;;;;10.77;5.20;;;;;;;14.90;100.00;94860.44;5056544;28;20201;-81
2022/10/02 06:34:26;;;;;;;6.97;5.10;;;;;;;14.88;100.00;94846.81;5055155;28;20204;-77
2022/10/02 06:37:18;;;;;;;5.53;5.00;;;;;;;14.84;100.00;94862.19;5055171;28;20577;-77
2022/10/02 06:40:10;;;;;;;5.90;5.07;;;;;;;14.90;100.00;94874.31;5057807;28;20216;-77
2022/10/02 06:42:51;;;;;;;5.77;5.23;;;;;;;14.87;100.00;94864.31;5049419;28;20205;-78
2022/10/02 06:45:28;;;;;;;5.93;5.30;;;;;;;15.01;100.00;94877.88;5059335;28;20628;-77
2022/10/02 06:48:04;;;;;;;7.47;5.07;;;;;;;15.05;100.00;94882.41;5053328;28;20211;-76
2022/10/02 06:50:42;;;;;;;6.80;5.33;;;;;;;15.12;100.00;94883.00;5059206;28;20229;-76
2022/10/02 06:53:28;;;;;;;5.57;5.07;;;;;;;15.20;100.00;94884.44;5059448;28;20655;-78
2022/10/02 06:56:02;;;;;;;7.40;5.67;;;;;;;15.16;100.00;94878.09;5057119;28;20201;-79
2022/10/02 06:58:44;;;;;;;5.23;4.73;;;;;;;15.20;100.00;94889.69;5054999;28;20201;-77
2022/10/02 07:01:24;;;;;;;5.77;5.17;;;;;;;15.24;100.00;94902.03;5057170;28;20208;-76
2022/10/02 07:04:11;;;;;;;6.10;5.27;;;;;;;15.30;100.00;94900.28;5052459;28;20668;-76
2022/10/02 07:06:49;;;;;;;5.90;5.40;;;;;;;15.34;100.00;94917.91;5051211;28;20224;-78
2022/10/02 07:09:48;;;;;;;4.67;4.27;;;;;;;15.35;100.00;94923.94;5064181;28;20213;-77
2022/10/02 07:12:42;;;;;;;4.30;3.87;;;;;;;15.36;100.00;94917.66;5060913;28;20233;-81
2022/10/02 07:15:36;;;;;;;3.77;3.47;;;;;;;15.38;100.00;94939.19;5041525;28;20205;-84
2022/10/02 07:18:18;;;;;;;4.80;4.40;;;;;;;15.37;100.00;94924.50;5012660;28;20678;-78
2022/10/02 07:20:54;;;;;;;4.40;4.00;;;;;;;15.52;100.00;94943.09;5057624;28;20208;-79
2022/10/02 07:23:50;;;;;;;7.17;4.43;;;;;;;15.59;100.00;94932.41;5053795;28;20216;-79
2022/10/02 07:26:49;;;;;;;4.43;4.03;;;;;;;15.57;100.00;94931.88;5053628;28;21540;-79
2022/10/02 07:29:38;;;;;;;4.70;3.93;;;;;;;15.60;98.25;94932.19;4982078;28;20200;-80
2022/10/02 07:32:34;;;;;;;4.10;3.50;;;;;;;15.65;98.03;94919.16;5048209;28;20340;-81
2022/10/02 07:35:18;;;;;;;5.87;3.60;;;;;;;15.63;98.43;94934.31;5055100;28;20211;-80
2022/10/02 07:37:54;;;;;;;8.93;4.13;;;;;;;15.55;100.00;94919.03;5056152;28;20224;-79
2022/10/02 07:40:34;;;;;;;8.00;3.87;;;;;;;15.73;98.21;94934.44;5059676;28;20205;-79
2022/10/02 07:43:27;;;;;;;3.80;3.20;;;;;;;15.78;94.79;94934.53;5053411;28;20200;-78
2022/10/02 07:46:08;;;;;;;7.63;4.10;;;;;;;15.81;93.54;94934.00;5058500;28;20204;-80
2022/10/02 07:49:03;;;;;;;3.50;2.83;;;;;;;15.74;93.26;94940.47;5056052;28;20679;-83
2022/10/02 07:51:48;;;;;;;4.33;3.10;;;;;;;15.85;92.34;94935.13;5058676;28;20238;-78
2022/10/02 07:54:47;;;;;;;3.73;2.67;;;;;;;15.87;90.65;94951.41;5059737;28;20944;-78
2022/10/02 07:57:29;;;;;;;4.40;2.60;;;;;;;15.80;90.18;94953.41;5062388;28;20212;-85
2022/10/02 08:00:02;;;;;;;3.37;3.07;;;;;;;15.80;91.38;94970.97;5057144;28;20237;-83
2022/10/02 08:02:36;;;;;;;3.17;2.87;;;;;;;15.82;88.83;94961.81;5054811;28;20193;-84
2022/10/02 08:05:12;;;;;;;4.43;3.00;;;;;;;15.87;89.29;94979.47;5068258;28;20297;-81
2022/10/02 08:07:41;;;;;;;4.20;2.80;;;;;;;16.07;90.78;94971.84;5067648;28;20283;-82
2022/10/02 08:10:13;;;;;;;3.10;2.80;;;;;;;16.03;90.35;94968.13;5059581;28;20683;-83
2022/10/02 08:12:45;;;;;;;5.00;2.73;;;;;;;16.13;91.54;94983.97;5064514;28;20798;-83
2022/10/02 08:15:17;;;;;;;3.10;2.80;;;;;;;16.13;90.36;94988.44;5061812;28;20250;-82
2022/10/02 08:17:49;;;;;;;3.17;2.87;;;;;;;16.27;90.01;94982.59;5057317;28;20206;-83
2022/10/02 08:20:22;;;;;;;4.13;3.33;;;;;;;16.30;89.77;94976.84;5065358;28;20253;-80
2022/10/02 08:22:54;;;;;;;3.23;2.90;;;;;;;16.39;90.17;94974.59;5066806;28;20220;-83
2022/10/02 08:25:25;;;;;;;3.63;2.53;;;;;;;16.37;89.89;94979.28;5060897;28;20694;-84
2022/10/02 08:27:59;;;;;;;3.37;3.07;;;;;;;16.43;90.38;94975.66;5056984;28;20982;-81
2022/10/02 08:30:26;;;;;;;2.60;2.40;;;;;;;16.64;88.08;94963.59;5064885;28;20690;-76
2022/10/02 08:32:54;;;;;;;7.70;2.77;;;;;;;16.34;87.04;94966.63;5064590;28;20228;-76
2022/10/02 08:35:21;;;;;;;2.90;2.63;;;;;;;16.29;87.80;94961.34;5068979;28;20266;-77
2022/10/02 08:38:09;;;;;;;3.00;2.60;;;;;;;16.40;87.23;94961.22;5061720;28;20204;-77
2022/10/02 08:41:04;;;;;;;4.17;2.57;;;;;;;16.65;87.47;94960.69;5055060;28;20198;-76
2022/10/02 08:44:04;;;;;;;3.07;2.70;;;;;;;16.94;85.62;94962.03;5059388;28;20198;-77
2022/10/02 08:47:10;;;;;;;2.60;2.40;;;;;;;16.90;83.50;94945.22;5059919;28;20202;-77
2022/10/02 08:50:04;;;;;;;4.77;2.73;;;;;;;16.89;82.92;94948.88;5055573;28;20622;-78
2022/10/02 08:53:07;;;;;;;3.30;2.60;;;;;;;17.05;82.45;94951.63;5059209;28;20222;-78
2022/10/02 08:56:10;;;;;;;3.07;2.57;;;;;;;17.21;81.93;94961.19;5053032;28;20201;-78
2022/10/02 08:59:25;;;;;;;6.70;2.43;;;;;;;17.47;81.64;94965.59;5063822;28;20201;-77
2022/10/02 09:02:18;;;;;;;4.20;2.37;;;;;;;17.73;78.33;94961.31;5062310;28;20719;-79
2022/10/02 09:05:18;;;;;;;4.73;2.70;;;;;;;17.88;78.41;94974.56;5063882;28;20284;-78
2022/10/02 09:08:25;;;;;;;2.43;2.23;;;;;;;17.91;78.14;94960.91;5065061;28;20206;-78
2022/10/02 09:11:19;;;;;;;3.47;2.90;;;;;;;17.98;77.91;94951.72;5054061;28;20213;-78
2022/10/02 09:14:36;;;;;;;6.00;3.33;;;;;;;18.21;78.73;94958.38;5057422;28;20231;-78
2022/10/02 09:17:17;;;;;;;2.70;2.40;;;;;;;18.41;75.94;94944.53;5059125;28;20646;-78
2022/10/02 09:20:15;;;;;;;2.80;2.60;;;;;;;18.54;75.48;94955.38;5064593;28;20212;-78
2022/10/02 09:23:08;;;;;;;2.50;2.30;;;;;;;18.50;75.19;94953.50;5062994;28;20217;-78
2022/10/02 09:25:38;;;;;;;3.80;2.47;;;;;;;18.41;74.89;94952.44;5057085;28;20193;-78
2022/10/02 09:28:46;;;;;;;3.87;2.40;;;;;;;18.44;74.14;94967.72;5065850;28;20213;-78
2022/10/02 09:31:40;;;;;;;3.77;2.57;;;;;;;18.40;72.84;94949.00;5050676;28;20214;-76
2022/10/02 09:35:00;;;;;;;2.60;2.40;;;;;;;18.64;73.40;94952.75;5058332;28;20207;-77
2022/10/02 09:38:04;;;;;;;3.08;2.78;;;;;;;19.11;72.78;94970.22;4967860;28;20200;-79
2022/10/02 09:41:11;;;;;;;3.00;2.70;;;;;;;19.13;71.36;94950.44;4979206;28;20202;-78
2022/10/02 09:44:11;;;;;;;3.83;2.33;;;;;;;19.41;70.74;94964.19;5059402;28;20284;-77
2022/10/02 09:47:09;;;;;;;4.38;2.30;;;;;;;19.17;70.38;94959.41;5062844;28;20194;-77
2022/10/02 09:50:15;;;;;;;4.40;3.10;;;;;;;19.45;71.30;94960.75;5060906;28;20201;-77
2022/10/02 09:53:13;;;;;;;3.55;2.90;;;;;;;19.83;69.21;94982.34;5055564;28;20225;-77
2022/10/02 09:56:06;;;;;;;5.15;2.60;;;;;;;19.59;69.28;94963.66;5064923;28;20207;-77
2022/10/02 09:59:02;;;;;;;3.38;2.42;;;;;;;19.59;70.44;94953.09;5061032;28;20288;-77
2022/10/02 10:02:01;;;;;;;3.17;2.42;;;;;;;19.93;68.77;94943.53;5059057;28;20212;-78
2022/10/02 10:05:07;;;;;;;3.35;2.60;;;;;;;19.76;67.39;94949.13;5052828;28;20210;-78
2022/10/02 10:08:15;;;;;;;4.32;3.08;;;;;;;19.95;68.14;94954.59;5055996;28;20198;-77
2022/10/02 10:11:19;;;;;;;4.68;2.70;;;;;;;19.99;67.83;94950.38;5014751;28;20218;-77
2022/10/02 10:14:04;;;;;;;3.00;2.55;;;;;;;20.14;67.87;94963.53;5057452;28;20230;-77
2022/10/02 10:16:56;;;;;;;4.07;2.63;;;;;;;20.34;68.09;94963.47;5055795;28;20225;-77
2022/10/02 10:19:58;;;;;;;6.60;2.40;;;;;;;20.42;66.99;94953.41;5061653;28;20644;-77
2022/10/02 10:23:07;;;;;;;2.97;2.50;;;;;;;20.17;68.47;94959.56;5058347;28;20225;-78
2022/10/02 10:26:04;;;;;;;3.25;2.40;;;;;;;20.38;67.48;94956.56;5058713;28;20198;-83
2022/10/02 10:29:11;;;;;;;6.95;2.90;;;;;;;20.78;67.24;94967.97;5054262;28;20209;-83
2022/10/02 10:32:25;;;;;;;5.72;2.63;;;;;;;21.27;64.87;94962.66;5043362;28;20630;-83
2022/10/02 10:35:14;;;;;;;4.40;2.25;;;;;;;21.70;63.07;94961.72;5062648;28;20695;-84
2022/10/02 10:41:04;;;;;;;2.85;2.10;;;;;;;21.97;61.74;94969.97;5067202;28;20200;-82
2022/10/02 10:44:02;;;;;;;2.28;2.00;;;;;;;21.28;62.32;94956.31;5056755;28;20209;-83
2022/10/02 10:47:05;;;;;;;3.45;2.10;;;;;;;21.45;61.94;94944.25;5058407;28;20208;-84
2022/10/02 10:50:03;;;;;;;2.70;1.92;;;;;;;21.77;62.06;94946.31;5062338;28;20197;-83
2022/10/02 10:52:50;;;;;;;3.53;2.33;;;;;;;22.14;62.62;94945.69;5061901;28;20611;-84
2022/10/02 10:55:19;;;;;;;3.40;1.90;;;;;;;22.45;58.04;94941.59;5058663;28;20640;-83
2022/10/02 10:58:11;;;;;;;9.30;1.95;;;;;;;22.51;57.62;94945.00;5054736;28;20213;-82
2022/10/02 11:00:50;;;;;;;3.53;1.80;;;;;;;22.41;58.09;94945.91;5054985;28;20206;-82
2022/10/02 11:04:03;;;;;;;2.78;1.80;;;;;;;22.89;57.68;94951.88;5063617;28;20209;-82
2022/10/02 11:06:50;;;;;;;3.47;1.95;;;;;;;22.81;57.75;94947.25;5015467;28;20209;-83
2022/10/02 11:10:10;;;;;;;4.60;2.20;;;;;;;22.67;59.07;94964.13;5060742;28;20896;-82
2022/10/02 11:13:02;;;;;;;3.28;2.10;;;;;;;22.27;58.80;94941.56;4993825;28;20215;-83
2022/10/02 11:16:05;;;;;;;3.15;1.88;;;;;;;22.13;58.90;94930.88;4988347;28;20210;-83
2022/10/02 11:18:47;;;;;;;2.97;1.95;;;;;;;22.14;58.36;94924.50;5048167;28;20204;-84
2022/10/02 11:21:40;;;;;;;2.28;1.80;;;;;;;22.13;58.68;94922.16;5060346;28;20217;-83
2022/10/02 11:24:49;;;;;;;2.03;1.70;;;;;;;22.14;57.90;94927.16;5059827;28;20205;-82
2022/10/02 11:27:34;;;;;;;5.53;1.92;;;;;;;22.04;58.43;94900.81;5027832;28;20328;-78
2022/10/02 11:30:22;;;;;;;2.35;1.85;;;;;;;22.47;58.99;94922.78;5058895;28;20625;-78
2022/10/02 11:33:18;;;;;;;2.75;1.85;;;;;;;22.58;57.06;94918.91;5058808;28;20217;-85
2022/10/02 11:36:08;;;;;;;1.80;1.70;;;;;;;22.05;57.96;94928.84;5058797;28;20210;-84
2022/10/02 11:38:55;;;;;;;2.20;1.73;;;;;;;22.34;59.17;94926.09;5056955;28;20683;-82
2022/10/02 11:41:37;;;;;;;1.60;1.50;;;;;;;22.58;56.41;94927.66;5064809;28;20578;-84
2022/10/02 11:44:23;;;;;;;3.85;1.80;;;;;;;22.41;56.70;94937.94;5058214;28;20197;-83
2022/10/02 11:47:22;;;;;;;1.80;1.70;;;;;;;21.93;58.59;94923.94;5057446;28;20236;-83
2022/10/02 11:50:12;;;;;;;2.20;1.70;;;;;;;21.81;59.57;94933.34;5058341;28;20202;-82
2022/10/02 11:53:07;;;;;;;1.73;1.63;;;;;;;22.08;57.06;94936.22;5055201;28;20209;-84
2022/10/02 11:55:50;;;;;;;2.45;1.77;;;;;;;21.68;57.76;94934.78;5055768;28;20626;-83
2022/10/02 11:58:27;;;;;;;2.05;1.70;;;;;;;21.93;58.72;94933.75;5059545;28;20695;-82
2022/10/02 12:01:09;;;;;;;3.60;1.80;;;;;;;22.39;56.76;94949.91;5064838;28;20201;-83
2022/10/02 12:04:02;;;;;;;2.10;1.90;;;;;;;22.54;56.48;94952.34;5058171;28;20193;-82
2022/10/02 12:06:44;;;;;;;2.15;1.95;;;;;;;23.11;56.96;94948.66;5058277;28;20934;-82
2022/10/02 12:09:19;;;;;;;5.30;2.15;;;;;;;23.31;54.29;94951.00;5061075;28;20197;-82
2022/10/02 12:12:00;;;;;;;2.50;1.90;;;;;;;23.06;54.72;94954.03;5065993;28;20624;-82
2022/10/02 12:14:36;;;;;;;2.50;1.70;;;;;;;23.45;55.13;94953.72;5060064;28;20237;-82
2022/10/02 12:17:16;;;;;;;2.20;1.92;;;;;;;23.97;53.64;94957.84;5062983;28;20206;-81
2022/10/02 12:28:32;;;;;;;2.13;2.00;;;;;;;23.43;53.12;94955.88;5058706;28;20225;-82
2022/10/02 12:31:09;;;;;;;2.40;2.05;;;;;;;22.96;53.06;94938.28;5056905;28;20211;-80
2022/10/02 12:33:43;;;;;;;1.90;1.80;;;;;;;22.48;54.57;94940.25;5055589;28;20210;-80
2022/10/02 12:36:31;;;;;;;3.90;2.00;;;;;;;22.30;55.69;94933.06;5057055;28;20288;-79
2022/10/02 12:39:06;;;;;;;3.88;2.10;;;;;;;21.93;55.86;94931.88;5058792;28;20284;-80
2022/10/02 12:41:58;;;;;;;2.00;1.90;;;;;;;22.55;55.86;94924.78;5061215;28;20220;-80
2022/10/02 12:44:52;;;;;;;2.53;2.03;;;;;;;22.95;54.17;94939.34;5055125;28;20201;-80
2022/10/02 12:47:46;;;;;;;3.78;1.80;;;;;;;22.33;54.27;94924.56;5062122;28;20297;-80
2022/10/02 12:50:23;;;;;;;2.67;1.80;;;;;;;22.23;53.00;94925.47;5055795;28;20352;-82